createdAt,value
2017-05-23T00:01:49.186Z,55.60
2017-05-23T00:04:17.522Z,56.20
2017-05-23T00:06:45.822Z,56.90
2017-05-23T00:09:14.107Z,55.70
2017-05-23T00:11:42.425Z,56.40
2017-05-23T00:14:10.720Z,57.90
2017-05-23T00:16:39.064Z,58.60
2017-05-23T00:19:07.361Z,57.40
2017-05-23T00:21:35.885Z,57.90
2017-05-23T00:24:04.222Z,56.50
2017-05-23T00:26:32.511Z,57.40
2017-05-23T00:29:01.103Z,57.60
2017-05-23T00:31:29.421Z,59.00
2017-05-23T00:33:57.964Z,59.10
2017-05-23T00:36:26.303Z,58.30
2017-05-23T00:38:54.587Z,58.00
2017-05-23T00:41:22.889Z,57.10
2017-05-23T00:43:51.237Z,58.70
2017-05-23T00:46:19.514Z,59.30
2017-05-23T00:48:47.798Z,60.00
2017-05-23T00:51:16.124Z,60.40
2017-05-23T00:53:44.469Z,60.90
2017-05-23T00:56:12.778Z,61.00
2017-05-23T00:58:41.055Z,61.30
2017-05-23T01:01:09.386Z,61.60
2017-05-23T01:03:37.688Z,61.50
2017-05-23T01:06:05.984Z,61.70
2017-05-23T01:08:34.320Z,61.90
2017-05-23T01:11:03.038Z,61.80
2017-05-23T01:13:31.381Z,62.00
2017-05-23T01:15:59.675Z,61.80
2017-05-23T01:18:27.982Z,61.90
2017-05-23T01:20:56.316Z,61.80
2017-05-23T01:23:24.611Z,61.80
2017-05-23T01:25:52.899Z,62.20
2017-05-23T01:28:21.223Z,62.20
2017-05-23T01:30:49.579Z,62.70
2017-05-23T01:33:17.917Z,62.60
2017-05-23T01:35:46.224Z,62.50
2017-05-23T01:38:14.505Z,62.40
2017-05-23T01:40:43.177Z,62.30
2017-05-23T01:43:11.504Z,62.60
2017-05-23T01:45:39.854Z,62.80
2017-05-23T01:48:08.196Z,62.80
2017-05-23T01:50:36.493Z,62.80
2017-05-23T01:53:04.796Z,62.60
2017-05-23T01:55:33.135Z,62.90
2017-05-23T01:58:01.421Z,62.80
2017-05-23T02:00:30.002Z,63.60
2017-05-23T02:02:58.336Z,63.80
2017-05-23T02:05:26.637Z,63.50
2017-05-23T02:07:54.961Z,64.20
2017-05-23T02:10:23.624Z,63.80
2017-05-23T02:12:52.212Z,64.60
2017-05-23T02:15:20.503Z,63.10
2017-05-23T02:17:48.824Z,63.50
2017-05-23T02:20:17.225Z,63.60
2017-05-23T02:22:45.580Z,64.00
2017-05-23T02:25:14.209Z,63.90
2017-05-23T02:27:42.502Z,64.00
2017-05-23T02:30:10.847Z,64.10
2017-05-23T02:32:39.206Z,63.60
2017-05-23T02:35:07.491Z,64.40
2017-05-23T02:37:35.823Z,64.40
2017-05-23T02:40:04.124Z,65.40
2017-05-23T02:42:32.439Z,64.40
2017-05-23T02:45:00.739Z,63.30
2017-05-23T02:47:29.076Z,64.00
2017-05-23T02:49:57.370Z,64.10
2017-05-23T02:52:25.659Z,65.10
2017-05-23T02:54:53.983Z,65.50
2017-05-23T02:57:22.311Z,66.20
2017-05-23T02:59:50.617Z,66.10
2017-05-23T03:02:18.912Z,66.50
2017-05-23T03:04:47.243Z,67.60
2017-05-23T03:07:15.530Z,67.70
2017-05-23T03:09:43.875Z,68.00
2017-05-23T03:12:12.431Z,68.30
2017-05-23T03:14:40.728Z,67.10
2017-05-23T03:17:09.054Z,67.80
2017-05-23T03:19:37.626Z,66.60
2017-05-23T03:22:06.212Z,64.60
2017-05-23T03:24:34.536Z,64.50
2017-05-23T03:27:02.835Z,65.60
2017-05-23T03:29:31.190Z,65.00
2017-05-23T03:31:59.486Z,65.10
2017-05-23T03:34:27.797Z,65.40
2017-05-23T03:36:56.137Z,64.80
2017-05-23T03:39:24.442Z,65.10
2017-05-23T03:41:52.731Z,64.60
2017-05-23T03:44:21.052Z,60.70
2017-05-23T03:46:49.352Z,60.00
2017-05-23T03:49:17.666Z,63.10
2017-05-23T03:51:45.979Z,61.40
2017-05-23T03:54:14.280Z,62.40
2017-05-23T03:56:42.599Z,61.30
2017-05-23T03:59:10.930Z,62.60
2017-05-23T04:01:39.233Z,62.70
2017-05-23T04:04:07.796Z,59.00
2017-05-23T04:06:36.094Z,62.50
2017-05-23T04:09:04.388Z,61.90
2017-05-23T04:11:32.980Z,62.80
2017-05-23T04:14:01.273Z,63.00
2017-05-23T04:16:29.631Z,60.50
2017-05-23T04:18:57.938Z,60.10
2017-05-23T04:21:26.231Z,59.60
2017-05-23T04:23:54.875Z,62.40
2017-05-23T04:26:23.181Z,62.30
2017-05-23T04:28:51.518Z,60.00
2017-05-23T04:31:19.831Z,58.20
2017-05-23T04:33:48.128Z,60.40
2017-05-23T04:36:16.446Z,59.80
2017-05-23T04:38:44.735Z,57.60
2017-05-23T04:41:13.077Z,60.10
2017-05-23T04:43:41.381Z,59.90
2017-05-23T04:46:09.681Z,60.00
2017-05-23T04:48:38.008Z,57.00
2017-05-23T04:51:06.303Z,59.40
2017-05-23T04:53:34.638Z,58.80
2017-05-23T04:56:02.932Z,59.10
2017-05-23T04:58:31.283Z,59.00
2017-05-23T05:01:00.662Z,57.50
2017-05-23T05:03:29.549Z,56.90
2017-05-23T05:05:57.911Z,56.40
2017-05-23T05:08:26.200Z,56.30
2017-05-23T05:10:54.572Z,57.00
2017-05-23T05:13:22.905Z,57.30
2017-05-23T05:15:51.199Z,56.90
2017-05-23T05:18:19.517Z,56.00
2017-05-23T05:20:47.826Z,55.40
2017-05-23T05:23:16.147Z,56.70
2017-05-23T05:25:44.457Z,56.40
2017-05-23T05:28:12.761Z,55.90
2017-05-23T05:30:41.090Z,55.70
2017-05-23T05:33:09.473Z,54.90
2017-05-23T05:35:37.814Z,56.00
2017-05-23T05:38:06.101Z,55.40
2017-05-23T05:40:34.403Z,54.50
2017-05-23T05:43:02.771Z,55.40
2017-05-23T05:45:31.070Z,54.50
2017-05-23T05:47:59.845Z,54.40
2017-05-23T05:50:28.132Z,54.50
2017-05-23T05:52:56.421Z,54.70
2017-05-23T05:55:24.762Z,55.10
2017-05-23T05:57:53.065Z,55.20
2017-05-23T06:00:21.359Z,55.30
2017-05-23T06:02:49.911Z,54.50
2017-05-23T06:05:18.212Z,53.40
2017-05-23T06:07:46.503Z,54.40
2017-05-23T06:10:14.848Z,54.60
2017-05-23T06:12:43.161Z,54.10
2017-05-23T06:15:13.044Z,52.50
2017-05-23T06:17:41.664Z,53.20
2017-05-23T06:20:09.963Z,53.10
2017-05-23T06:22:38.260Z,51.80
2017-05-23T06:25:06.596Z,52.80
2017-05-23T06:27:34.891Z,52.30
2017-05-23T06:30:03.240Z,51.80
2017-05-23T06:32:31.820Z,52.20
2017-05-23T06:35:01.306Z,51.50
2017-05-23T06:37:29.715Z,52.40
2017-05-23T06:39:58.064Z,51.90
2017-05-23T06:42:28.845Z,51.70
2017-05-23T06:44:58.415Z,51.80
2017-05-23T06:47:28.330Z,52.30
2017-05-23T06:49:56.759Z,51.60
2017-05-23T06:52:25.053Z,52.00
2017-05-23T06:54:53.465Z,51.60
2017-05-23T06:57:25.220Z,51.60
2017-05-23T06:59:55.002Z,50.90
2017-05-23T07:02:24.710Z,51.40
2017-05-23T07:04:54.222Z,51.70
2017-05-23T07:07:24.798Z,50.50
2017-05-23T07:09:55.648Z,50.20
2017-05-23T07:12:25.492Z,49.70
2017-05-23T07:14:55.546Z,49.60
2017-05-23T07:17:24.150Z,49.60
2017-05-23T07:19:52.451Z,49.40
2017-05-23T07:34:59.820Z,49.40
2017-05-23T07:37:28.117Z,46.50
2017-05-23T07:39:56.415Z,47.70
2017-05-23T07:42:24.749Z,47.70
2017-05-23T07:44:53.071Z,46.50
2017-05-23T07:47:21.392Z,47.30
2017-05-23T07:49:49.693Z,48.00
2017-05-23T07:52:17.987Z,46.10
2017-05-23T07:54:46.341Z,46.90
2017-05-23T07:57:14.647Z,46.60
2017-05-23T07:59:42.981Z,48.50
2017-05-23T08:02:11.270Z,47.20
2017-05-23T08:04:39.593Z,45.60
2017-05-23T08:07:07.942Z,48.20
2017-05-23T08:09:36.236Z,48.30
2017-05-23T08:12:04.520Z,46.70
2017-05-23T08:27:47.630Z,45.40
2017-05-23T08:30:17.465Z,42.80
2017-05-23T08:32:45.791Z,44.80
2017-05-23T08:35:14.074Z,41.90
2017-05-23T08:37:42.369Z,48.30
2017-05-23T08:40:10.693Z,45.30
2017-05-23T08:42:38.965Z,42.80
2017-05-23T08:45:07.239Z,43.00
2017-05-23T08:47:35.559Z,43.80
2017-05-23T08:50:03.861Z,43.80
2017-05-23T08:52:32.184Z,44.20
2017-05-23T08:55:00.476Z,43.90
2017-05-23T08:57:28.770Z,42.10
2017-05-23T08:59:57.750Z,41.90
2017-05-23T09:02:26.052Z,40.20
2017-05-23T09:04:54.344Z,40.40
2017-05-23T09:07:22.664Z,43.60
2017-05-23T09:09:50.997Z,39.00
2017-05-23T09:12:19.332Z,44.20
2017-05-23T09:14:47.634Z,42.70
2017-05-23T09:17:16.203Z,39.60
2017-05-23T09:19:44.483Z,38.20
2017-05-23T09:22:13.013Z,38.10
2017-05-23T09:24:41.361Z,37.90
2017-05-23T09:27:15.343Z,43.20
2017-05-23T09:29:43.823Z,37.30
2017-05-23T09:32:12.455Z,38.80
2017-05-23T09:34:40.785Z,39.30
2017-05-23T09:37:09.064Z,37.70
2017-05-23T09:39:37.392Z,38.90
2017-05-23T09:42:05.688Z,38.80
2017-05-23T09:44:33.966Z,37.20
2017-05-23T09:47:02.289Z,38.60
2017-05-23T09:49:30.568Z,35.20
2017-05-23T09:51:58.906Z,33.20
2017-05-23T09:54:27.198Z,34.50
2017-05-23T09:56:55.490Z,38.90
2017-05-23T09:59:23.815Z,38.80
2017-05-23T10:01:52.107Z,32.40
2017-05-23T10:04:20.386Z,32.70
2017-05-23T10:06:48.715Z,32.80
2017-05-23T10:09:17.003Z,33.10
2017-05-23T10:11:45.333Z,34.80
2017-05-23T10:14:13.627Z,31.90
2017-05-23T10:16:42.809Z,33.20
2017-05-23T10:19:11.127Z,34.10
2017-05-23T10:21:39.417Z,35.00
2017-05-23T10:24:07.748Z,34.70
2017-05-23T10:26:36.037Z,35.50
2017-05-23T10:29:04.327Z,35.20
2017-05-23T10:31:32.635Z,35.20
2017-05-23T10:34:01.181Z,34.60
2017-05-23T10:36:29.765Z,37.00
2017-05-23T10:38:58.046Z,35.10
2017-05-23T10:41:26.341Z,36.00
2017-05-23T10:43:54.641Z,37.00
2017-05-23T10:46:22.958Z,35.10
2017-05-23T10:48:51.252Z,35.30
2017-05-23T10:51:19.577Z,39.00
2017-05-23T10:53:47.864Z,35.20
2017-05-23T10:56:16.488Z,39.00
2017-05-23T10:58:44.778Z,32.90
2017-05-23T11:01:13.059Z,33.00
2017-05-23T11:03:41.377Z,34.60
2017-05-23T11:06:09.663Z,34.60
2017-05-23T11:08:38.283Z,33.50
2017-05-23T11:11:06.572Z,34.10
2017-05-23T11:13:34.855Z,33.90
2017-05-23T11:16:03.172Z,33.30
2017-05-23T11:18:31.455Z,32.30
2017-05-23T11:21:00.073Z,29.70
2017-05-23T11:23:28.389Z,32.30
2017-05-23T11:25:56.822Z,34.60
2017-05-23T11:28:25.124Z,35.40
2017-05-23T11:30:53.415Z,34.20
2017-05-23T11:33:21.738Z,31.80
2017-05-23T11:35:50.034Z,32.00
2017-05-23T11:38:18.381Z,31.30
2017-05-23T11:40:46.706Z,30.70
2017-05-23T11:43:15.008Z,30.50
2017-05-23T11:45:43.324Z,32.40
2017-05-23T11:48:11.721Z,30.90
2017-05-23T11:50:57.285Z,28.50
2017-05-23T11:53:25.616Z,33.60
2017-05-23T11:55:53.892Z,30.90
2017-05-23T11:58:22.452Z,28.80
2017-05-23T12:00:50.755Z,30.00
2017-05-23T12:03:19.275Z,28.60
2017-05-23T12:05:47.587Z,33.50
2017-05-23T12:08:15.872Z,31.00
2017-05-23T12:10:44.192Z,28.90
2017-05-23T12:13:12.486Z,28.70
2017-05-23T12:15:40.832Z,29.00
2017-05-23T12:18:09.123Z,29.20
2017-05-23T12:20:37.412Z,29.00
2017-05-23T12:23:05.726Z,28.90
2017-05-23T12:25:34.012Z,29.90
2017-05-23T12:28:02.340Z,27.90
2017-05-23T12:30:30.643Z,28.50
2017-05-23T12:32:58.933Z,29.00
2017-05-23T12:35:27.243Z,28.80
2017-05-23T12:37:55.560Z,26.50
2017-05-23T12:40:23.904Z,27.50
2017-05-23T12:42:52.201Z,27.70
2017-05-23T12:45:20.486Z,27.80
2017-05-23T12:47:48.833Z,28.60
2017-05-23T12:50:17.130Z,27.90
2017-05-23T12:52:45.468Z,28.70
2017-05-23T12:55:13.764Z,26.90
2017-05-23T12:57:42.042Z,28.60
2017-05-23T13:00:10.404Z,28.30
2017-05-23T13:02:38.977Z,27.50
2017-05-23T13:05:07.298Z,27.20
2017-05-23T13:07:35.621Z,27.60
2017-05-23T13:10:03.995Z,27.80
2017-05-23T13:12:32.313Z,27.10
2017-05-23T13:15:00.619Z,28.20
2017-05-23T13:17:28.989Z,28.20
2017-05-23T13:19:57.287Z,27.80
2017-05-23T13:22:25.687Z,27.10
2017-05-23T13:24:54.003Z,28.50
2017-05-23T13:27:22.287Z,28.70
2017-05-23T13:29:50.615Z,29.20
2017-05-23T13:32:18.904Z,28.90
2017-05-23T13:34:47.209Z,28.80
2017-05-23T13:37:15.525Z,29.00
2017-05-23T13:39:43.815Z,29.70
2017-05-23T13:42:11.367Z,29.60
2017-05-23T13:44:39.680Z,28.60
2017-05-23T13:47:08.146Z,26.80
2017-05-23T13:49:36.740Z,27.10
2017-05-23T13:52:05.111Z,27.60
2017-05-23T13:54:33.435Z,27.60
2017-05-23T13:57:01.759Z,28.60
2017-05-23T13:59:30.030Z,28.30
2017-05-23T14:01:58.316Z,28.70
2017-05-23T14:04:26.648Z,28.40
2017-05-23T14:06:54.943Z,29.10
2017-05-23T14:09:23.239Z,30.00
2017-05-23T14:11:51.572Z,29.80
2017-05-23T14:14:19.854Z,29.60
2017-05-23T14:16:48.286Z,29.50
2017-05-23T14:19:16.570Z,29.20
2017-05-23T14:21:44.852Z,28.90
2017-05-23T14:24:13.167Z,30.00
2017-05-23T14:26:41.455Z,30.10
2017-05-23T14:29:09.976Z,29.30
2017-05-23T14:31:38.306Z,28.70
2017-05-23T14:34:06.586Z,29.30
2017-05-23T14:36:34.877Z,28.60
2017-05-23T14:39:03.219Z,29.50
2017-05-23T14:41:31.565Z,30.10
2017-05-23T14:43:59.853Z,31.10
2017-05-23T14:46:28.186Z,29.10
2017-05-23T14:48:56.478Z,30.00
2017-05-23T14:51:24.807Z,30.20
2017-05-23T14:53:53.096Z,30.30
2017-05-23T14:56:21.396Z,31.10
2017-05-23T14:58:49.765Z,31.10
2017-05-23T15:01:18.071Z,31.00
2017-05-23T15:03:46.367Z,30.30
2017-05-23T15:06:14.701Z,29.20
2017-05-23T15:08:43.267Z,30.50
2017-05-23T15:11:11.548Z,30.40
2017-05-23T15:13:40.510Z,30.40
2017-05-23T15:16:10.336Z,30.30
2017-05-23T15:18:39.652Z,31.00
2017-05-23T15:21:08.761Z,30.40
2017-05-23T15:23:38.306Z,29.10
2017-05-23T15:26:08.867Z,28.60
2017-05-23T15:28:38.326Z,28.30
2017-05-23T15:31:08.169Z,28.50
2017-05-23T15:33:37.988Z,29.80
2017-05-23T15:36:07.995Z,30.30
2017-05-23T15:38:37.338Z,30.30
2017-05-23T15:41:07.476Z,30.50
2017-05-23T15:43:37.728Z,31.70
2017-05-23T15:46:07.338Z,31.90
2017-05-23T15:48:37.196Z,32.60
2017-05-23T15:51:06.792Z,31.40
2017-05-23T15:53:35.195Z,31.80
2017-05-23T15:56:03.478Z,32.30
2017-05-23T15:58:31.813Z,31.50
2017-05-23T16:01:00.110Z,32.30
2017-05-23T16:03:28.404Z,32.20
2017-05-23T16:05:56.826Z,32.70
2017-05-23T16:08:25.207Z,32.40
2017-05-23T16:10:53.805Z,33.00
2017-05-23T16:13:22.104Z,32.30
2017-05-23T16:15:50.695Z,32.20
2017-05-23T16:18:19.220Z,32.00
2017-05-23T16:20:47.632Z,31.60
2017-05-23T16:23:16.085Z,32.00
2017-05-23T16:25:44.677Z,31.90
2017-05-23T16:28:13.137Z,31.40
2017-05-23T16:30:41.444Z,31.50
2017-05-23T16:33:09.771Z,30.50
2017-05-23T16:35:38.093Z,31.00
2017-05-23T16:38:07.005Z,30.70
2017-05-23T16:40:35.795Z,30.20
2017-05-23T16:43:04.101Z,30.50
2017-05-23T16:45:32.396Z,30.30
2017-05-23T16:48:00.783Z,28.50
2017-05-23T16:50:29.073Z,28.00
2017-05-23T16:52:57.376Z,28.40
2017-05-23T16:55:25.714Z,30.00
2017-05-23T16:57:54.011Z,29.40
2017-05-23T17:00:22.536Z,30.50
2017-05-23T17:02:50.870Z,30.10
2017-05-23T17:05:19.147Z,31.30
2017-05-23T17:07:47.430Z,31.60
2017-05-23T17:10:16.025Z,31.70
2017-05-23T17:12:44.392Z,32.20
2017-05-23T17:15:12.775Z,32.20
2017-05-23T17:17:41.118Z,32.70
2017-05-23T17:20:09.637Z,32.90
2017-05-23T17:22:37.946Z,33.70
2017-05-23T17:25:06.263Z,33.50
2017-05-23T17:27:34.552Z,33.80
2017-05-23T17:30:02.900Z,34.30
2017-05-23T17:32:31.194Z,34.20
2017-05-23T17:34:59.543Z,35.00
2017-05-23T17:37:27.836Z,34.60
2017-05-23T17:39:56.523Z,35.10
2017-05-23T17:42:25.165Z,35.30
2017-05-23T17:44:53.495Z,35.60
2017-05-23T17:47:21.810Z,38.70
2017-05-23T17:49:50.150Z,42.40
2017-05-23T17:52:18.443Z,45.30
2017-05-23T17:54:46.755Z,49.50
2017-05-23T17:57:15.336Z,52.70
2017-05-23T17:59:43.921Z,55.00
2017-05-23T18:02:12.215Z,50.70
2017-05-23T18:04:40.494Z,54.70
2017-05-23T18:07:09.050Z,54.40
2017-05-23T18:09:37.372Z,63.90
2017-05-23T18:12:05.698Z,72.00
2017-05-23T18:14:33.984Z,75.60
2017-05-23T18:17:02.288Z,82.00
2017-05-23T18:19:30.852Z,84.60
2017-05-23T18:21:59.138Z,86.60
2017-05-23T18:24:27.452Z,91.20
2017-05-23T18:26:55.787Z,91.70
2017-05-23T18:29:24.101Z,92.60
2017-05-23T18:31:52.642Z,93.20
2017-05-23T18:34:20.941Z,93.80
2017-05-23T18:36:50.307Z,93.60
2017-05-23T18:39:18.604Z,93.00
2017-05-23T18:41:46.963Z,92.50
2017-05-23T18:44:15.564Z,93.30
2017-05-23T18:46:43.856Z,93.00
2017-05-23T18:49:12.181Z,93.30
2017-05-23T18:51:40.503Z,94.10
2017-05-23T18:54:08.820Z,93.70
2017-05-23T18:56:37.138Z,93.10
2017-05-23T18:59:05.427Z,93.70
2017-05-23T19:01:33.715Z,94.00
2017-05-23T19:04:02.317Z,93.40
2017-05-23T19:06:30.612Z,93.60
2017-05-23T19:08:59.251Z,92.10
2017-05-23T19:11:27.947Z,93.30
2017-05-23T19:13:56.232Z,93.60
2017-05-23T19:16:24.573Z,92.50
2017-05-23T19:18:52.865Z,91.50
2017-05-23T19:21:21.159Z,91.80
2017-05-23T19:23:49.493Z,90.30
2017-05-23T19:26:17.787Z,89.20
2017-05-23T19:28:46.077Z,90.50
2017-05-23T19:31:14.392Z,85.60
2017-05-23T19:33:42.681Z,90.40
2017-05-23T19:36:11.021Z,91.30
2017-05-23T19:38:39.304Z,91.60
2017-05-23T19:41:07.599Z,91.40
2017-05-23T19:43:35.948Z,90.70
2017-05-23T19:46:04.247Z,91.70
2017-05-23T19:48:32.593Z,92.70
2017-05-23T19:51:00.911Z,93.10
2017-05-23T19:53:29.223Z,92.00
2017-05-23T19:55:57.554Z,93.00
2017-05-23T19:58:25.849Z,93.00
2017-05-23T20:00:54.153Z,93.40
2017-05-23T20:03:22.488Z,92.70
2017-05-23T20:05:51.052Z,93.20
2017-05-23T20:08:19.343Z,93.00
2017-05-23T20:10:47.664Z,92.50
2017-05-23T20:13:15.961Z,92.10
2017-05-23T20:15:44.300Z,92.70
2017-05-23T20:18:12.595Z,92.30
2017-05-23T20:20:40.886Z,92.70
2017-05-23T20:23:09.235Z,93.00
2017-05-23T20:25:37.535Z,93.50
2017-05-23T20:28:05.881Z,93.40
2017-05-23T20:30:34.232Z,93.70
2017-05-23T20:33:02.528Z,94.30
2017-05-23T20:35:30.827Z,93.80
2017-05-23T20:37:59.359Z,93.90
2017-05-23T20:40:27.658Z,94.20
2017-05-23T20:42:55.969Z,94.60
2017-05-23T20:45:24.305Z,94.60
2017-05-23T20:47:52.596Z,94.70
2017-05-23T20:50:23.798Z,94.80
2017-05-23T20:52:53.898Z,94.10
2017-05-23T20:55:22.289Z,94.40
2017-05-23T20:57:53.528Z,94.40
2017-05-23T21:00:21.933Z,93.70
2017-05-23T21:02:50.219Z,94.20
2017-05-23T21:05:18.551Z,94.30
2017-05-23T21:07:47.087Z,94.60
2017-05-23T21:10:15.403Z,94.10
2017-05-23T21:12:43.754Z,94.70
2017-05-23T21:15:12.060Z,94.70
2017-05-23T21:17:40.342Z,94.00
2017-05-23T21:20:08.718Z,93.90
2017-05-23T21:22:37.026Z,94.20
2017-05-23T21:25:05.362Z,94.40
2017-05-23T21:27:33.655Z,94.60
2017-05-23T21:30:01.948Z,94.40
2017-05-23T21:32:30.270Z,94.00
2017-05-23T21:34:58.575Z,94.20
2017-05-23T21:37:27.713Z,94.10
2017-05-23T21:39:56.695Z,94.00
2017-05-23T21:42:25.753Z,93.70
2017-05-23T21:44:54.112Z,93.60
2017-05-23T21:47:22.692Z,93.80
2017-05-23T21:49:51.010Z,93.50
2017-05-23T21:52:19.302Z,93.80
2017-05-23T21:54:47.627Z,94.00
2017-05-23T21:57:25.075Z,93.20
2017-05-23T21:59:53.460Z,93.60
2017-05-23T22:02:21.756Z,92.90
2017-05-23T22:04:50.057Z,92.90
2017-05-23T22:07:18.387Z,93.20
2017-05-23T22:09:46.682Z,93.50
2017-05-23T22:12:15.011Z,93.10
2017-05-23T22:14:43.314Z,93.00
2017-05-23T22:29:54.775Z,92.70
2017-05-23T22:32:23.066Z,92.20
2017-05-23T22:34:51.375Z,92.90
2017-05-23T22:37:19.656Z,92.00
2017-05-23T22:39:47.972Z,92.60
2017-05-23T22:42:16.288Z,93.10
2017-05-23T22:44:44.595Z,92.50
2017-05-23T22:47:12.931Z,92.60
2017-05-23T22:49:41.229Z,92.00
2017-05-23T22:52:09.518Z,91.80
2017-05-23T22:54:37.829Z,91.50
2017-05-23T22:57:06.127Z,91.60
2017-05-23T22:59:34.456Z,91.70
2017-05-23T23:02:02.743Z,91.90
2017-05-23T23:04:31.039Z,92.20
2017-05-23T23:06:59.385Z,91.70
2017-05-23T23:09:27.667Z,91.40
2017-05-23T23:11:56.192Z,89.00
2017-05-23T23:14:24.834Z,88.70
2017-05-23T23:16:53.365Z,89.40
2017-05-23T23:19:21.650Z,88.90
2017-05-23T23:21:49.961Z,88.10
2017-05-23T23:24:18.258Z,88.90
2017-05-23T23:26:46.592Z,87.40
2017-05-23T23:29:14.875Z,87.00
2017-05-23T23:31:43.167Z,86.60
2017-05-23T23:34:11.490Z,87.30
2017-05-23T23:36:39.776Z,86.80
2017-05-23T23:39:08.104Z,87.00
2017-05-23T23:41:36.424Z,87.80
2017-05-23T23:44:04.757Z,88.00
2017-05-23T23:46:33.076Z,88.50
2017-05-23T23:49:01.350Z,87.00
2017-05-23T23:51:29.906Z,87.10
2017-05-23T23:53:58.247Z,88.20
2017-05-23T23:56:26.543Z,87.00
2017-05-23T23:58:54.872Z,88.90
